createdAt,value
2023-04-18T00:01:40.563Z,7.23
2023-04-18T00:04:10.056Z,7.28
2023-04-18T00:06:38.069Z,7.25
2023-04-18T00:09:06.199Z,7.27
2023-04-18T00:11:34.577Z,7.29
2023-04-18T00:14:03.298Z,7.29
2023-04-18T00:16:33.111Z,7.26
2023-04-18T00:19:02.361Z,7.21
2023-04-18T00:21:30.187Z,7.13
2023-04-18T00:23:57.891Z,7.15
2023-04-18T00:26:25.813Z,7.13
2023-04-18T00:28:53.539Z,7.12
2023-04-18T00:31:21.355Z,7.10
2023-04-18T00:33:49.160Z,7.04
2023-04-18T00:36:18.257Z,7.06
2023-04-18T00:38:45.938Z,7.01
2023-04-18T00:41:13.706Z,6.98
2023-04-18T00:43:41.448Z,6.95
2023-04-18T00:46:09.363Z,6.78
2023-04-18T00:48:39.027Z,6.88
2023-04-18T00:51:07.711Z,6.85
2023-04-18T00:53:37.171Z,6.83
2023-04-18T00:56:06.135Z,6.83
2023-04-18T00:58:33.946Z,6.80
2023-04-18T01:01:01.775Z,6.79
2023-04-18T01:03:29.866Z,6.77
2023-04-18T01:05:58.033Z,6.70
2023-04-18T01:08:26.186Z,6.68
2023-04-18T01:10:55.300Z,6.67
2023-04-18T01:13:23.059Z,6.65
2023-04-18T01:15:51.827Z,6.62
2023-04-18T01:18:20.792Z,6.55
2023-04-18T01:20:49.826Z,6.62
2023-04-18T01:23:18.516Z,6.56
2023-04-18T01:25:49.323Z,6.54
2023-04-18T01:28:17.402Z,6.50
2023-04-18T01:30:45.206Z,6.49
2023-04-18T01:33:12.979Z,6.47
2023-04-18T01:35:40.875Z,6.47
2023-04-18T01:38:08.626Z,6.45
2023-04-18T01:40:36.366Z,6.44
2023-04-18T01:43:05.450Z,6.40
2023-04-18T01:45:33.230Z,6.37
2023-04-18T01:48:01.006Z,6.32
2023-04-18T01:50:28.795Z,6.31
2023-04-18T01:52:56.578Z,6.28
2023-04-18T01:55:24.395Z,6.26
2023-04-18T01:57:52.771Z,6.23
2023-04-18T02:00:22.647Z,6.19
2023-04-18T02:02:51.068Z,6.16
2023-04-18T02:05:19.001Z,5.90
2023-04-18T02:07:47.732Z,6.10
2023-04-18T02:10:15.496Z,6.06
2023-04-18T02:12:43.242Z,6.03
2023-04-18T02:15:12.016Z,6.03
2023-04-18T02:17:41.628Z,5.99
2023-04-18T02:20:10.923Z,6.01
2023-04-18T02:22:39.558Z,6.01
2023-04-18T02:25:08.519Z,5.99
2023-04-18T02:27:36.286Z,5.98
2023-04-18T02:30:04.200Z,5.97
2023-04-18T02:32:31.998Z,5.92
2023-04-18T02:35:01.109Z,5.91
2023-04-18T02:37:28.907Z,5.88
2023-04-18T02:39:56.899Z,5.83
2023-04-18T02:42:24.718Z,5.80
2023-04-18T02:44:52.827Z,5.75
2023-04-18T02:47:20.594Z,5.69
2023-04-18T02:49:48.372Z,5.62
2023-04-18T02:52:17.528Z,5.58
2023-04-18T02:54:45.278Z,5.56
2023-04-18T02:57:13.078Z,5.57
2023-04-18T02:59:40.822Z,5.53
2023-04-18T03:02:08.706Z,5.48
2023-04-18T03:04:36.649Z,5.48
2023-04-18T03:07:04.549Z,5.46
2023-04-18T03:09:33.719Z,5.46
2023-04-18T03:12:02.171Z,5.43
2023-04-18T03:14:30.027Z,5.48
2023-04-18T03:16:57.756Z,5.52
2023-04-18T03:19:25.541Z,5.50
2023-04-18T03:21:53.421Z,5.45
2023-04-18T03:24:21.146Z,5.39
2023-04-18T03:26:50.300Z,5.37
2023-04-18T03:29:18.120Z,5.37
2023-04-18T03:31:46.018Z,5.35
2023-04-18T03:34:14.121Z,5.33
2023-04-18T03:36:42.255Z,5.28
2023-04-18T03:39:10.037Z,5.27
2023-04-18T03:41:37.809Z,5.27
2023-04-18T03:44:07.042Z,5.27
2023-04-18T03:46:34.958Z,5.27
2023-04-18T03:49:02.804Z,5.25
2023-04-18T03:51:34.629Z,5.20
2023-04-18T03:54:02.363Z,5.14
2023-04-18T03:56:30.366Z,5.12
2023-04-18T03:58:58.742Z,5.09
2023-04-18T04:01:27.966Z,5.05
2023-04-18T04:03:55.746Z,5.00
2023-04-18T04:06:24.076Z,4.96
2023-04-18T04:08:51.818Z,4.93
2023-04-18T04:11:19.618Z,4.88
2023-04-18T04:13:47.368Z,4.83
2023-04-18T04:16:15.186Z,4.79
2023-04-18T04:18:44.385Z,4.79
2023-04-18T04:21:12.198Z,4.78
2023-04-18T04:23:41.926Z,4.78
2023-04-18T04:26:09.894Z,4.79
2023-04-18T04:28:39.939Z,4.80
2023-04-18T04:31:08.359Z,4.79
2023-04-18T04:33:39.026Z,4.80
2023-04-18T04:36:09.235Z,4.75
2023-04-18T04:38:38.419Z,4.73
2023-04-18T04:41:07.619Z,4.72
2023-04-18T04:43:35.994Z,4.70
2023-04-18T04:46:04.387Z,4.69
2023-04-18T04:48:32.228Z,4.68
2023-04-18T04:51:01.563Z,4.66
2023-04-18T04:53:31.390Z,4.64
2023-04-18T04:55:59.465Z,4.70
2023-04-18T04:58:27.673Z,4.75
2023-04-18T05:00:55.743Z,4.74
2023-04-18T05:03:31.721Z,4.80
2023-04-18T05:05:59.725Z,4.85
2023-04-18T05:08:27.568Z,4.86
2023-04-18T05:10:57.046Z,4.81
2023-04-18T05:13:24.801Z,4.98
2023-04-18T05:15:53.732Z,5.06
2023-04-18T05:18:21.799Z,5.11
2023-04-18T05:20:49.532Z,5.16
2023-04-18T05:23:17.343Z,5.22
2023-04-18T05:25:45.108Z,5.26
2023-04-18T05:28:14.323Z,5.31
2023-04-18T05:30:42.189Z,5.36
2023-04-18T05:33:10.053Z,5.36
2023-04-18T05:35:38.157Z,5.40
2023-04-18T05:38:05.901Z,5.41
2023-04-18T05:40:33.765Z,5.41
2023-04-18T05:43:01.848Z,5.36
2023-04-18T05:45:31.025Z,5.38
2023-04-18T05:47:58.867Z,5.41
2023-04-18T05:50:26.670Z,5.44
2023-04-18T05:52:54.435Z,5.49
2023-04-18T05:55:22.400Z,5.58
2023-04-18T05:57:50.159Z,5.68
2023-04-18T06:00:18.717Z,5.75
2023-04-18T06:02:48.038Z,5.78
2023-04-18T06:05:16.078Z,5.85
2023-04-18T06:07:44.094Z,5.95
2023-04-18T06:10:13.693Z,5.98
2023-04-18T06:12:41.545Z,6.00
2023-04-18T06:15:10.720Z,6.03
2023-04-18T06:17:38.861Z,6.08
2023-04-18T06:20:09.112Z,6.13
2023-04-18T06:22:36.885Z,6.16
2023-04-18T06:25:04.988Z,6.14
2023-04-18T06:27:32.815Z,6.17
2023-04-18T06:30:00.593Z,6.19
2023-04-18T06:32:28.462Z,6.25
2023-04-18T06:34:56.428Z,6.26
2023-04-18T06:37:25.586Z,6.29
2023-04-18T06:39:53.322Z,6.32
2023-04-18T06:42:22.328Z,6.41
2023-04-18T06:44:50.642Z,6.49
2023-04-18T06:47:18.689Z,6.55
2023-04-18T06:49:46.496Z,6.55
2023-04-18T06:52:14.265Z,6.64
2023-04-18T06:54:43.472Z,6.58
2023-04-18T06:57:11.284Z,6.59
2023-04-18T06:59:40.798Z,6.61
2023-04-18T07:02:08.607Z,6.59
2023-04-18T07:04:36.358Z,6.53
2023-04-18T07:07:05.235Z,6.45
2023-04-18T07:09:33.021Z,6.55
2023-04-18T07:12:02.215Z,6.60
2023-04-18T07:14:31.688Z,6.63
2023-04-18T07:17:01.006Z,6.69
2023-04-18T07:19:28.827Z,6.70
2023-04-18T07:21:56.654Z,6.77
2023-04-18T07:24:24.650Z,6.76
2023-04-18T07:26:54.501Z,6.80
2023-04-18T07:29:24.274Z,6.87
2023-04-18T07:31:52.286Z,6.88
2023-04-18T07:34:20.021Z,6.86
2023-04-18T07:36:47.817Z,6.79
2023-04-18T07:39:15.625Z,6.83
2023-04-18T07:41:43.556Z,6.75
2023-04-18T07:44:11.620Z,6.69
2023-04-18T07:46:41.031Z,6.64
2023-04-18T07:49:08.791Z,6.65
2023-04-18T07:51:36.553Z,6.64
2023-04-18T07:54:04.418Z,6.69
2023-04-18T07:56:32.142Z,6.72
2023-04-18T07:58:59.963Z,6.73
2023-04-18T08:01:27.981Z,6.68
2023-04-18T08:04:01.731Z,6.65
2023-04-18T08:06:30.122Z,6.70
2023-04-18T08:08:59.062Z,6.81
2023-04-18T08:11:26.970Z,6.85
2023-04-18T08:13:54.727Z,6.93
2023-04-18T08:16:22.729Z,6.90
2023-04-18T08:18:50.597Z,6.96
2023-04-18T08:21:19.922Z,7.07
2023-04-18T08:23:48.242Z,7.13
2023-04-18T08:26:16.086Z,7.18
2023-04-18T08:28:46.373Z,7.12
2023-04-18T08:31:14.994Z,7.18
2023-04-18T08:33:43.232Z,7.22
2023-04-18T08:36:12.110Z,7.21
2023-04-18T08:38:41.344Z,7.24
2023-04-18T08:41:09.907Z,7.28
2023-04-18T08:43:38.893Z,7.33
2023-04-18T08:46:07.934Z,7.34
2023-04-18T08:48:36.786Z,7.43
2023-04-18T08:51:05.225Z,7.44
2023-04-18T08:53:35.305Z,7.52
2023-04-18T08:56:05.616Z,7.47
2023-04-18T08:58:34.832Z,7.45
2023-04-18T09:01:02.824Z,7.47
2023-04-18T09:03:39.716Z,7.49
2023-04-18T09:06:09.322Z,7.70
2023-04-18T09:08:37.111Z,7.89
2023-04-18T09:11:26.461Z,8.00
2023-04-18T09:13:56.463Z,8.15
2023-04-18T09:16:24.978Z,8.15
2023-04-18T09:19:13.322Z,8.30
2023-04-18T09:21:42.907Z,8.28
2023-04-18T09:24:20.897Z,8.44
2023-04-18T09:26:51.392Z,8.39
2023-04-18T09:29:22.362Z,8.66
2023-04-18T09:32:03.027Z,8.83
2023-04-18T09:34:34.011Z,8.96
2023-04-18T09:37:07.784Z,9.38
2023-04-18T09:39:35.897Z,9.57
2023-04-18T09:42:05.733Z,9.71
2023-04-18T09:44:33.875Z,10.24
2023-04-18T09:47:01.980Z,10.82
2023-04-18T09:49:30.009Z,11.43
2023-04-18T09:51:58.032Z,11.88
2023-04-18T09:54:26.361Z,11.70
2023-04-18T09:56:55.628Z,11.59
2023-04-18T09:59:38.059Z,11.30
2023-04-18T10:02:06.811Z,11.10
2023-04-18T10:04:35.749Z,10.91
2023-04-18T10:07:03.947Z,10.90
2023-04-18T10:09:34.329Z,10.90
2023-04-18T10:12:03.362Z,10.77
2023-04-18T10:14:34.042Z,10.76
2023-04-18T10:17:02.301Z,10.84
2023-04-18T10:19:30.734Z,11.07
2023-04-18T10:21:59.867Z,11.11
2023-04-18T10:24:54.074Z,11.55
2023-04-18T10:27:55.847Z,11.70
2023-04-18T10:30:50.988Z,11.83
2023-04-18T10:33:30.935Z,11.77
2023-04-18T10:36:21.468Z,11.62
2023-04-18T10:38:50.695Z,11.69
2023-04-18T10:41:21.298Z,11.60
2023-04-18T10:44:11.708Z,11.75
2023-04-18T10:46:40.588Z,11.73
2023-04-18T10:49:20.161Z,11.80
2023-04-18T10:51:49.613Z,11.72
2023-04-18T10:54:21.888Z,11.70
2023-04-18T10:56:54.074Z,11.92
2023-04-18T10:59:23.651Z,11.97
2023-04-18T11:01:55.847Z,12.00
2023-04-18T11:04:25.787Z,12.19
2023-04-18T11:06:57.082Z,12.13
2023-04-18T11:09:25.629Z,12.26
2023-04-18T11:12:04.468Z,12.48
2023-04-18T11:14:40.861Z,12.78
2023-04-18T11:17:19.299Z,12.76
2023-04-18T11:19:48.795Z,12.92
2023-04-18T11:22:17.226Z,13.14
2023-04-18T11:24:45.375Z,13.61
2023-04-18T11:27:13.962Z,13.60
2023-04-18T11:29:41.743Z,13.86
2023-04-18T11:32:10.556Z,13.82
2023-04-18T11:34:38.360Z,13.40
2023-04-18T11:37:08.667Z,13.60
2023-04-18T11:39:37.160Z,13.56
2023-04-18T11:42:05.831Z,13.49
2023-04-18T11:44:36.318Z,13.37
2023-04-18T11:47:04.227Z,13.39
2023-04-18T11:49:33.150Z,13.42
2023-04-18T11:52:02.231Z,13.40
2023-04-18T11:54:44.424Z,13.87
2023-04-18T11:57:23.887Z,13.89
2023-04-18T11:59:53.163Z,13.85
2023-04-18T12:02:22.487Z,13.94
2023-04-18T12:05:00.646Z,14.16
2023-04-18T12:07:36.431Z,14.21
2023-04-18T12:10:07.465Z,14.40
2023-04-18T12:12:35.958Z,14.69
2023-04-18T12:15:09.699Z,14.96
2023-04-18T12:17:38.556Z,15.25
2023-04-18T12:20:09.980Z,15.58
2023-04-18T12:22:40.035Z,15.53
2023-04-18T12:25:26.214Z,15.40
2023-04-18T12:27:58.026Z,15.30
2023-04-18T12:30:27.829Z,15.04
2023-04-18T12:32:56.960Z,15.12
2023-04-18T12:35:25.737Z,14.99
2023-04-18T12:37:55.107Z,14.97
2023-04-18T12:40:26.352Z,14.93
2023-04-18T12:42:55.357Z,14.58
2023-04-18T12:45:24.483Z,14.45
2023-04-18T12:47:53.228Z,14.52
2023-04-18T12:50:22.316Z,14.40
2023-04-18T12:52:50.348Z,14.21
2023-04-18T12:55:18.123Z,14.33
2023-04-18T12:57:47.314Z,14.20
2023-04-18T13:00:15.382Z,14.20
2023-04-18T13:02:45.970Z,14.16
2023-04-18T13:05:14.933Z,14.09
2023-04-18T13:07:43.218Z,14.01
2023-04-18T13:10:12.620Z,13.79
2023-04-18T13:12:41.570Z,13.80
2023-04-18T13:15:11.371Z,13.60
2023-04-18T13:17:40.147Z,13.58
2023-04-18T13:20:10.677Z,13.38
2023-04-18T13:22:38.671Z,13.33
2023-04-18T13:25:08.203Z,13.33
2023-04-18T13:27:35.976Z,13.32
2023-04-18T13:30:04.585Z,13.33
2023-04-18T13:32:33.889Z,13.25
2023-04-18T13:35:03.166Z,13.07
2023-04-18T13:37:31.241Z,13.01
2023-04-18T13:39:59.007Z,13.03
2023-04-18T13:42:26.730Z,13.02
2023-04-18T13:44:54.524Z,12.97
2023-04-18T13:47:22.325Z,12.85
2023-04-18T13:49:51.695Z,12.90
2023-04-18T13:52:19.471Z,12.89
2023-04-18T13:54:48.147Z,12.97
2023-04-18T13:57:15.974Z,13.02
2023-04-18T13:59:43.882Z,13.03
2023-04-18T14:02:12.340Z,13.02
2023-04-18T14:04:40.421Z,13.14
2023-04-18T14:07:09.687Z,13.09
2023-04-18T14:09:37.574Z,13.01
2023-04-18T14:12:06.168Z,13.06
2023-04-18T14:14:34.002Z,13.22
2023-04-18T14:17:01.866Z,13.21
2023-04-18T14:19:30.383Z,13.17
2023-04-18T14:21:58.169Z,13.17
2023-04-18T14:24:27.349Z,13.01
2023-04-18T14:26:55.539Z,12.96
2023-04-18T14:29:23.313Z,12.89
2023-04-18T14:31:51.353Z,12.90
2023-04-18T14:34:19.152Z,12.96
2023-04-18T14:36:46.893Z,12.93
2023-04-18T14:39:14.857Z,12.90
2023-04-18T14:41:45.793Z,12.78
2023-04-18T14:44:14.419Z,12.87
2023-04-18T14:46:43.339Z,12.87
2023-04-18T14:49:11.506Z,12.85
2023-04-18T14:51:39.354Z,12.89
2023-04-18T14:54:07.200Z,12.93
2023-04-18T14:56:34.946Z,13.17
2023-04-18T14:59:04.241Z,13.75
2023-04-18T15:01:32.044Z,14.40
2023-04-18T15:04:00.402Z,14.53
2023-04-18T15:06:28.455Z,14.57
2023-04-18T15:08:56.834Z,14.56
2023-04-18T15:11:24.834Z,14.88
2023-04-18T15:13:52.631Z,15.18
2023-04-18T15:16:21.841Z,15.21
2023-04-18T15:18:49.641Z,15.10
2023-04-18T15:21:17.431Z,14.85
2023-04-18T15:23:45.263Z,14.75
2023-04-18T15:26:13.018Z,14.29
2023-04-18T15:28:40.878Z,14.05
2023-04-18T15:31:09.605Z,13.88
2023-04-18T15:33:38.764Z,13.82
2023-04-18T15:36:07.055Z,13.63
2023-04-18T15:38:34.851Z,13.66
2023-04-18T15:41:02.629Z,13.43
2023-04-18T15:43:30.459Z,13.61
2023-04-18T15:45:58.222Z,13.57
2023-04-18T15:48:26.848Z,13.56
2023-04-18T15:50:56.014Z,13.49
2023-04-18T15:53:23.821Z,13.40
2023-04-18T15:55:53.625Z,13.42
2023-04-18T15:58:22.139Z,13.50
2023-04-18T16:00:50.656Z,13.48
2023-04-18T16:03:18.828Z,13.31
2023-04-18T16:05:47.678Z,13.17
2023-04-18T16:08:16.902Z,13.26
2023-04-18T16:10:44.710Z,13.13
2023-04-18T16:13:12.624Z,13.23
2023-04-18T16:15:41.651Z,13.56
2023-04-18T16:18:09.717Z,13.64
2023-04-18T16:20:37.703Z,13.83
2023-04-18T16:23:05.484Z,14.03
2023-04-18T16:25:34.640Z,14.04
2023-04-18T16:28:02.450Z,13.90
2023-04-18T16:30:30.504Z,13.75
2023-04-18T16:32:58.400Z,13.64
2023-04-18T16:35:26.405Z,13.52
2023-04-18T16:37:54.648Z,13.34
2023-04-18T16:40:23.011Z,13.30
2023-04-18T16:42:52.871Z,13.21
2023-04-18T16:45:20.857Z,13.28
2023-04-18T16:47:48.669Z,13.26
2023-04-18T16:50:16.558Z,13.19
2023-04-18T16:52:44.302Z,13.13
2023-04-18T16:55:12.265Z,13.05
2023-04-18T16:57:40.156Z,12.91
2023-04-18T17:00:13.552Z,12.79
2023-04-18T17:02:43.309Z,12.69
2023-04-18T17:05:12.402Z,12.61
2023-04-18T17:07:40.137Z,12.55
2023-04-18T17:10:10.131Z,12.57
2023-04-18T17:12:38.081Z,12.45
2023-04-18T17:15:07.013Z,12.35
2023-04-18T17:17:36.395Z,12.31
2023-04-18T17:20:06.999Z,12.29
2023-04-18T17:22:35.552Z,12.23
2023-04-18T17:25:03.802Z,12.22
2023-04-18T17:27:31.569Z,12.11
2023-04-18T17:29:59.351Z,12.05
2023-04-18T17:32:27.148Z,12.03
2023-04-18T17:34:56.462Z,12.03
2023-04-18T17:37:24.256Z,11.98
2023-04-18T17:39:52.264Z,11.90
2023-04-18T17:42:23.031Z,11.79
2023-04-18T17:44:50.894Z,11.72
2023-04-18T17:47:19.195Z,11.63
2023-04-18T17:49:46.956Z,11.60
2023-04-18T17:52:16.074Z,11.55
2023-04-18T17:54:45.001Z,11.50
2023-04-18T17:57:12.750Z,11.36
2023-04-18T17:59:40.610Z,11.34
2023-04-18T18:02:08.562Z,11.29
2023-04-18T18:04:36.639Z,11.24
2023-04-18T18:07:04.606Z,11.18
2023-04-18T18:09:33.899Z,11.11
2023-04-18T18:12:02.486Z,11.04
2023-04-18T18:14:30.339Z,10.99
2023-04-18T18:16:58.123Z,11.02
2023-04-18T18:19:26.022Z,10.98
2023-04-18T18:21:53.750Z,10.92
2023-04-18T18:24:21.497Z,10.89
2023-04-18T18:26:51.663Z,10.86
2023-04-18T18:29:19.945Z,10.81
2023-04-18T18:31:47.868Z,10.77
2023-04-18T18:34:19.319Z,10.73
2023-04-18T18:36:47.216Z,10.70
2023-04-18T18:39:16.557Z,10.68
2023-04-18T18:41:44.756Z,10.63
2023-04-18T18:44:13.908Z,10.51
2023-04-18T18:46:43.144Z,10.49
2023-04-18T18:49:11.221Z,10.44
2023-04-18T18:51:39.030Z,10.43
2023-04-18T18:54:06.924Z,10.20
2023-04-18T18:56:34.729Z,10.36
2023-04-18T18:59:02.452Z,10.32
2023-04-18T19:01:31.804Z,10.31
2023-04-18T19:03:59.736Z,10.27
2023-04-18T19:06:27.682Z,10.21
2023-04-18T19:08:55.457Z,10.13
2023-04-18T19:11:23.268Z,10.09
2023-04-18T19:13:52.282Z,10.13
2023-04-18T19:16:20.161Z,10.12
2023-04-18T19:18:50.600Z,10.07
2023-04-18T19:21:20.200Z,10.11
2023-04-18T19:23:48.003Z,10.08
2023-04-18T19:26:15.771Z,10.02
2023-04-18T19:28:43.579Z,10.01
2023-04-18T19:31:11.372Z,10.01
2023-04-18T19:33:39.203Z,9.98
2023-04-18T19:36:08.648Z,9.95
2023-04-18T19:38:36.390Z,9.93
2023-04-18T19:41:04.239Z,9.92
2023-04-18T19:43:32.068Z,9.92
2023-04-18T19:46:00.464Z,9.91
2023-04-18T19:48:28.230Z,9.88
2023-04-18T19:50:57.545Z,9.87
2023-04-18T19:53:26.810Z,9.83
2023-04-18T19:55:55.420Z,9.81
2023-04-18T19:58:36.021Z,9.77
2023-04-18T20:01:06.075Z,9.77
2023-04-18T20:03:34.885Z,9.75
2023-04-18T20:06:02.813Z,9.70
2023-04-18T20:08:32.009Z,9.69
2023-04-18T20:10:59.803Z,9.69
2023-04-18T20:13:27.562Z,9.68
2023-04-18T20:15:56.269Z,9.58
2023-04-18T20:18:24.970Z,9.63
2023-04-18T20:20:53.141Z,9.60
2023-04-18T20:23:21.090Z,9.59
2023-04-18T20:25:50.525Z,9.58
2023-04-18T20:28:18.292Z,9.51
2023-04-18T20:30:46.215Z,9.54
2023-04-18T20:33:13.996Z,9.51
2023-04-18T20:35:42.193Z,9.48
2023-04-18T20:38:11.198Z,9.49
2023-04-18T20:40:39.894Z,9.44
2023-04-18T20:43:09.063Z,9.46
2023-04-18T20:45:37.505Z,9.43
2023-04-18T20:48:06.457Z,9.44
2023-04-18T20:50:34.258Z,9.37
2023-04-18T20:53:02.342Z,9.36
2023-04-18T20:55:30.346Z,9.37
2023-04-18T20:57:58.615Z,9.35
2023-04-18T21:00:28.056Z,9.31
2023-04-18T21:02:55.996Z,9.27
2023-04-18T21:05:24.001Z,9.25
2023-04-18T21:07:51.736Z,9.25
2023-04-18T21:10:19.598Z,9.27
2023-04-18T21:12:47.353Z,9.29
2023-04-18T21:15:15.210Z,9.21
2023-04-18T21:17:44.425Z,9.29
2023-04-18T21:20:12.425Z,9.26
2023-04-18T21:22:40.238Z,9.30
2023-04-18T21:25:09.007Z,9.33
2023-04-18T21:27:36.746Z,9.31
2023-04-18T21:30:05.227Z,9.29
2023-04-18T21:32:33.094Z,9.26
2023-04-18T21:35:05.324Z,9.26
2023-04-18T21:37:36.842Z,9.23
2023-04-18T21:40:05.173Z,9.19
2023-04-18T21:42:35.200Z,9.16
2023-04-18T21:45:03.035Z,9.19
2023-04-18T21:47:31.448Z,9.18
2023-04-18T21:49:59.245Z,9.15
2023-04-18T21:52:28.355Z,9.15
2023-04-18T21:54:56.762Z,9.19
2023-04-18T21:57:24.543Z,9.21
2023-04-18T21:59:52.276Z,9.15
2023-04-18T22:02:20.783Z,9.16
2023-04-18T22:04:48.933Z,9.12
2023-04-18T22:07:18.619Z,9.15
2023-04-18T22:09:48.327Z,9.15
2023-04-18T22:12:16.182Z,9.13
2023-04-18T22:14:48.274Z,9.09
2023-04-18T22:17:16.216Z,9.11
2023-04-18T22:19:44.514Z,9.09
2023-04-18T22:22:12.460Z,9.09
2023-04-18T22:24:40.347Z,9.09
2023-04-18T22:27:09.579Z,9.07
2023-04-18T22:29:37.681Z,9.07
2023-04-18T22:32:06.058Z,9.08
2023-04-18T22:34:33.813Z,9.05
2023-04-18T22:37:01.920Z,9.03
2023-04-18T22:39:31.335Z,9.00
2023-04-18T22:42:00.214Z,8.96
2023-04-18T22:44:29.493Z,8.97
2023-04-18T22:46:57.600Z,8.95
2023-04-18T22:49:25.351Z,8.93
2023-04-18T22:51:54.626Z,8.89
2023-04-18T22:54:22.850Z,8.88
2023-04-18T22:56:51.107Z,8.86
2023-04-18T22:59:19.104Z,8.74
2023-04-18T23:01:48.361Z,8.86
2023-04-18T23:04:16.456Z,8.84
2023-04-18T23:06:45.081Z,8.83
2023-04-18T23:09:12.853Z,8.76
2023-04-18T23:11:41.157Z,8.76
2023-04-18T23:14:09.715Z,8.71
2023-04-18T23:16:37.706Z,8.66
2023-04-18T23:19:06.920Z,8.63
2023-04-18T23:21:34.702Z,8.59
2023-04-18T23:24:02.812Z,8.54
2023-04-18T23:26:30.705Z,8.54
2023-04-18T23:28:58.704Z,8.55
2023-04-18T23:31:26.534Z,8.51
2023-04-18T23:33:54.350Z,8.47
2023-04-18T23:36:23.645Z,8.44
2023-04-18T23:38:51.623Z,8.42
2023-04-18T23:41:19.436Z,8.36
2023-04-18T23:43:47.193Z,8.37
2023-04-18T23:46:14.957Z,8.34
2023-04-18T23:48:42.807Z,8.31
2023-04-18T23:51:11.192Z,8.16
2023-04-18T23:53:40.554Z,8.28
2023-04-18T23:56:08.516Z,8.26
2023-04-18T23:58:36.316Z,8.24
